sensor_id;sensor_type;location;lat;lon;timestamp;P1;durP1;ratioP1;P2;durP2;ratioP2
46411;SDS011;32113;42.012;24.870;2022-08-19T00:01:21;9.98;;;5.50;;
46411;SDS011;32113;42.012;24.870;2022-08-19T00:03:47;7.72;;;5.53;;
46411;SDS011;32113;42.012;24.870;2022-08-19T00:06:13;6.00;;;4.78;;
46411;SDS011;32113;42.012;24.870;2022-08-19T00:08:39;7.05;;;5.38;;
46411;SDS011;32113;42.012;24.870;2022-08-19T00:11:05;7.13;;;5.22;;
46411;SDS011;32113;42.012;24.870;2022-08-19T00:13:31;6.93;;;5.53;;
46411;SDS011;32113;42.012;24.870;2022-08-19T00:15:56;7.75;;;5.30;;
46411;SDS011;32113;42.012;24.870;2022-08-19T00:18:23;6.47;;;5.60;;
46411;SDS011;32113;42.012;24.870;2022-08-19T00:20:49;7.20;;;5.65;;
46411;SDS011;32113;42.012;24.870;2022-08-19T00:23:15;8.40;;;5.38;;
46411;SDS011;32113;42.012;24.870;2022-08-19T00:25:41;7.30;;;5.53;;
46411;SDS011;32113;42.012;24.870;2022-08-19T00:28:06;7.53;;;4.97;;
46411;SDS011;32113;42.012;24.870;2022-08-19T00:30:32;6.97;;;5.20;;
46411;SDS011;32113;42.012;24.870;2022-08-19T00:32:58;5.63;;;4.90;;
46411;SDS011;32113;42.012;24.870;2022-08-19T00:35:23;7.70;;;5.28;;
46411;SDS011;32113;42.012;24.870;2022-08-19T00:37:49;9.20;;;5.22;;
46411;SDS011;32113;42.012;24.870;2022-08-19T00:40:16;8.02;;;5.20;;
46411;SDS011;32113;42.012;24.870;2022-08-19T00:42:43;7.50;;;4.80;;
46411;SDS011;32113;42.012;24.870;2022-08-19T00:45:17;7.55;;;5.25;;
46411;SDS011;32113;42.012;24.870;2022-08-19T00:47:49;9.63;;;5.38;;
46411;SDS011;32113;42.012;24.870;2022-08-19T00:50:15;7.78;;;5.45;;
46411;SDS011;32113;42.012;24.870;2022-08-19T00:52:44;9.48;;;5.30;;
46411;SDS011;32113;42.012;24.870;2022-08-19T00:55:16;6.72;;;5.40;;
46411;SDS011;32113;42.012;24.870;2022-08-19T00:57:50;11.05;;;5.47;;
46411;SDS011;32113;42.012;24.870;2022-08-19T01:00:19;7.00;;;5.30;;
46411;SDS011;32113;42.012;24.870;2022-08-19T01:02:46;6.85;;;5.25;;
46411;SDS011;32113;42.012;24.870;2022-08-19T01:05:14;5.65;;;4.93;;
46411;SDS011;32113;42.012;24.870;2022-08-19T01:07:46;6.32;;;5.10;;
46411;SDS011;32113;42.012;24.870;2022-08-19T01:12:41;7.32;;;5.40;;
46411;SDS011;32113;42.012;24.870;2022-08-19T01:15:07;6.70;;;5.00;;
46411;SDS011;32113;42.012;24.870;2022-08-19T01:17:35;8.93;;;5.30;;
46411;SDS011;32113;42.012;24.870;2022-08-19T01:20:03;8.30;;;5.25;;
46411;SDS011;32113;42.012;24.870;2022-08-19T01:22:34;5.78;;;4.97;;
46411;SDS011;32113;42.012;24.870;2022-08-19T01:25:04;6.82;;;4.82;;
46411;SDS011;32113;42.012;24.870;2022-08-19T01:27:41;7.23;;;4.93;;
46411;SDS011;32113;42.012;24.870;2022-08-19T01:30:08;6.70;;;5.63;;
46411;SDS011;32113;42.012;24.870;2022-08-19T01:32:36;14.05;;;5.30;;
46411;SDS011;32113;42.012;24.870;2022-08-19T01:35:02;7.93;;;5.82;;
46411;SDS011;32113;42.012;24.870;2022-08-19T01:37:29;6.07;;;4.75;;
46411;SDS011;32113;42.012;24.870;2022-08-19T01:39:55;13.90;;;5.28;;
46411;SDS011;32113;42.012;24.870;2022-08-19T01:42:20;8.00;;;4.90;;
46411;SDS011;32113;42.012;24.870;2022-08-19T01:44:47;7.32;;;5.97;;
46411;SDS011;32113;42.012;24.870;2022-08-19T01:47:12;10.60;;;4.72;;
46411;SDS011;32113;42.012;24.870;2022-08-19T01:49:38;8.77;;;5.47;;
46411;SDS011;32113;42.012;24.870;2022-08-19T01:52:04;6.82;;;5.30;;
46411;SDS011;32113;42.012;24.870;2022-08-19T01:54:30;6.80;;;4.93;;
46411;SDS011;32113;42.012;24.870;2022-08-19T01:57:00;7.15;;;5.20;;
46411;SDS011;32113;42.012;24.870;2022-08-19T01:59:30;8.40;;;5.55;;
46411;SDS011;32113;42.012;24.870;2022-08-19T02:01:56;8.40;;;5.77;;
46411;SDS011;32113;42.012;24.870;2022-08-19T02:04:22;6.50;;;5.60;;
46411;SDS011;32113;42.012;24.870;2022-08-19T02:06:48;7.40;;;5.22;;
46411;SDS011;32113;42.012;24.870;2022-08-19T02:09:13;6.97;;;5.28;;
46411;SDS011;32113;42.012;24.870;2022-08-19T02:11:39;7.20;;;5.60;;
46411;SDS011;32113;42.012;24.870;2022-08-19T02:14:06;7.47;;;5.60;;
46411;SDS011;32113;42.012;24.870;2022-08-19T02:16:33;5.70;;;5.10;;
46411;SDS011;32113;42.012;24.870;2022-08-19T02:18:59;5.88;;;5.28;;
46411;SDS011;32113;42.012;24.870;2022-08-19T02:21:27;6.60;;;5.38;;
46411;SDS011;32113;42.012;24.870;2022-08-19T02:23:54;7.78;;;5.43;;
46411;SDS011;32113;42.012;24.870;2022-08-19T02:26:20;7.80;;;5.65;;
46411;SDS011;32113;42.012;24.870;2022-08-19T02:28:46;6.45;;;5.55;;
46411;SDS011;32113;42.012;24.870;2022-08-19T02:31:14;7.90;;;5.50;;
46411;SDS011;32113;42.012;24.870;2022-08-19T02:33:44;6.07;;;5.18;;
46411;SDS011;32113;42.012;24.870;2022-08-19T02:36:10;7.53;;;5.60;;
46411;SDS011;32113;42.012;24.870;2022-08-19T02:38:37;9.20;;;5.10;;
46411;SDS011;32113;42.012;24.870;2022-08-19T02:41:05;7.32;;;5.60;;
46411;SDS011;32113;42.012;24.870;2022-08-19T02:43:36;7.10;;;5.53;;
46411;SDS011;32113;42.012;24.870;2022-08-19T02:46:10;7.38;;;5.70;;
46411;SDS011;32113;42.012;24.870;2022-08-19T02:48:38;8.32;;;5.45;;
46411;SDS011;32113;42.012;24.870;2022-08-19T02:51:04;5.90;;;5.30;;
46411;SDS011;32113;42.012;24.870;2022-08-19T02:53:30;10.38;;;5.53;;
46411;SDS011;32113;42.012;24.870;2022-08-19T02:55:56;9.93;;;5.68;;
46411;SDS011;32113;42.012;24.870;2022-08-19T02:58:21;7.13;;;5.18;;
46411;SDS011;32113;42.012;24.870;2022-08-19T03:00:49;6.18;;;5.45;;
46411;SDS011;32113;42.012;24.870;2022-08-19T03:03:17;9.93;;;5.68;;
46411;SDS011;32113;42.012;24.870;2022-08-19T03:05:44;8.87;;;5.93;;
46411;SDS011;32113;42.012;24.870;2022-08-19T03:08:10;7.70;;;6.35;;
46411;SDS011;32113;42.012;24.870;2022-08-19T03:10:44;12.48;;;5.55;;
46411;SDS011;32113;42.012;24.870;2022-08-19T03:13:12;7.80;;;5.28;;
46411;SDS011;32113;42.012;24.870;2022-08-19T03:15:44;5.97;;;5.38;;
46411;SDS011;32113;42.012;24.870;2022-08-19T03:18:12;9.43;;;5.60;;
46411;SDS011;32113;42.012;24.870;2022-08-19T03:20:46;7.50;;;5.55;;
46411;SDS011;32113;42.012;24.870;2022-08-19T03:23:15;6.00;;;5.40;;
46411;SDS011;32113;42.012;24.870;2022-08-19T03:25:42;10.75;;;5.43;;
46411;SDS011;32113;42.012;24.870;2022-08-19T03:28:10;9.50;;;5.50;;
46411;SDS011;32113;42.012;24.870;2022-08-19T03:30:37;6.38;;;5.45;;
46411;SDS011;32113;42.012;24.870;2022-08-19T03:33:05;8.30;;;5.47;;
46411;SDS011;32113;42.012;24.870;2022-08-19T03:35:32;10.05;;;5.50;;
46411;SDS011;32113;42.012;24.870;2022-08-19T03:37:58;8.82;;;5.22;;
46411;SDS011;32113;42.012;24.870;2022-08-19T03:40:24;6.60;;;5.35;;
46411;SDS011;32113;42.012;24.870;2022-08-19T03:42:50;8.23;;;5.32;;
46411;SDS011;32113;42.012;24.870;2022-08-19T03:45:15;6.60;;;5.32;;
46411;SDS011;32113;42.012;24.870;2022-08-19T03:47:41;6.28;;;5.65;;
46411;SDS011;32113;42.012;24.870;2022-08-19T03:50:07;7.88;;;5.55;;
46411;SDS011;32113;42.012;24.870;2022-08-19T03:52:34;7.85;;;5.63;;
46411;SDS011;32113;42.012;24.870;2022-08-19T03:55:01;9.52;;;5.82;;
46411;SDS011;32113;42.012;24.870;2022-08-19T03:57:27;6.35;;;5.60;;
46411;SDS011;32113;42.012;24.870;2022-08-19T03:59:52;10.27;;;5.68;;
46411;SDS011;32113;42.012;24.870;2022-08-19T04:02:18;7.03;;;5.88;;
46411;SDS011;32113;42.012;24.870;2022-08-19T04:04:43;7.65;;;5.25;;
46411;SDS011;32113;42.012;24.870;2022-08-19T04:07:09;7.97;;;5.70;;
46411;SDS011;32113;42.012;24.870;2022-08-19T04:09:36;6.75;;;5.15;;
46411;SDS011;32113;42.012;24.870;2022-08-19T04:12:02;10.18;;;5.50;;
46411;SDS011;32113;42.012;24.870;2022-08-19T04:14:30;8.70;;;6.03;;
46411;SDS011;32113;42.012;24.870;2022-08-19T04:16:56;7.85;;;5.25;;
46411;SDS011;32113;42.012;24.870;2022-08-19T04:19:23;7.93;;;5.80;;
46411;SDS011;32113;42.012;24.870;2022-08-19T04:21:49;8.15;;;5.65;;
46411;SDS011;32113;42.012;24.870;2022-08-19T04:24:17;8.30;;;5.93;;
46411;SDS011;32113;42.012;24.870;2022-08-19T04:26:42;8.82;;;5.57;;
46411;SDS011;32113;42.012;24.870;2022-08-19T04:29:41;10.27;;;6.18;;
46411;SDS011;32113;42.012;24.870;2022-08-19T04:32:00;8.02;;;5.40;;
46411;SDS011;32113;42.012;24.870;2022-08-19T04:34:27;10.38;;;5.45;;
46411;SDS011;32113;42.012;24.870;2022-08-19T04:36:54;15.55;;;6.00;;
46411;SDS011;32113;42.012;24.870;2022-08-19T04:39:22;8.75;;;5.70;;
46411;SDS011;32113;42.012;24.870;2022-08-19T04:42:12;8.52;;;5.60;;
46411;SDS011;32113;42.012;24.870;2022-08-19T04:44:57;9.48;;;5.55;;
46411;SDS011;32113;42.012;24.870;2022-08-19T04:47:23;8.32;;;5.72;;
46411;SDS011;32113;42.012;24.870;2022-08-19T04:49:49;11.48;;;5.68;;
46411;SDS011;32113;42.012;24.870;2022-08-19T04:52:14;7.00;;;5.70;;
46411;SDS011;32113;42.012;24.870;2022-08-19T04:54:39;6.85;;;5.53;;
46411;SDS011;32113;42.012;24.870;2022-08-19T04:57:08;7.47;;;5.82;;
46411;SDS011;32113;42.012;24.870;2022-08-19T04:59:35;6.10;;;5.30;;
46411;SDS011;32113;42.012;24.870;2022-08-19T05:02:02;8.60;;;5.72;;
46411;SDS011;32113;42.012;24.870;2022-08-19T05:04:28;11.65;;;5.47;;
46411;SDS011;32113;42.012;24.870;2022-08-19T05:06:56;9.25;;;5.47;;
46411;SDS011;32113;42.012;24.870;2022-08-19T05:09:22;7.82;;;5.50;;
46411;SDS011;32113;42.012;24.870;2022-08-19T05:11:48;9.15;;;5.60;;
46411;SDS011;32113;42.012;24.870;2022-08-19T05:14:15;8.15;;;5.70;;
46411;SDS011;32113;42.012;24.870;2022-08-19T05:16:41;8.30;;;5.65;;
46411;SDS011;32113;42.012;24.870;2022-08-19T05:19:06;8.82;;;6.10;;
46411;SDS011;32113;42.012;24.870;2022-08-19T05:21:51;7.50;;;5.03;;
46411;SDS011;32113;42.012;24.870;2022-08-19T05:24:35;12.70;;;5.95;;
46411;SDS011;32113;42.012;24.870;2022-08-19T05:27:02;7.20;;;6.03;;
46411;SDS011;32113;42.012;24.870;2022-08-19T05:29:30;7.22;;;5.55;;
46411;SDS011;32113;42.012;24.870;2022-08-19T05:31:57;8.95;;;5.60;;
46411;SDS011;32113;42.012;24.870;2022-08-19T05:34:24;10.70;;;5.68;;
46411;SDS011;32113;42.012;24.870;2022-08-19T05:36:53;11.30;;;5.72;;
46411;SDS011;32113;42.012;24.870;2022-08-19T05:39:22;7.50;;;5.07;;
46411;SDS011;32113;42.012;24.870;2022-08-19T05:41:50;12.50;;;5.45;;
46411;SDS011;32113;42.012;24.870;2022-08-19T05:44:26;7.95;;;5.28;;
46411;SDS011;32113;42.012;24.870;2022-08-19T05:46:56;8.65;;;5.63;;
46411;SDS011;32113;42.012;24.870;2022-08-19T05:49:23;7.33;;;6.03;;
46411;SDS011;32113;42.012;24.870;2022-08-19T05:51:50;6.05;;;5.45;;
46411;SDS011;32113;42.012;24.870;2022-08-19T05:54:16;9.00;;;5.45;;
46411;SDS011;32113;42.012;24.870;2022-08-19T05:56:43;9.02;;;5.35;;
46411;SDS011;32113;42.012;24.870;2022-08-19T05:59:09;6.65;;;4.93;;
46411;SDS011;32113;42.012;24.870;2022-08-19T06:01:39;6.15;;;5.40;;
46411;SDS011;32113;42.012;24.870;2022-08-19T06:04:06;8.10;;;5.90;;
46411;SDS011;32113;42.012;24.870;2022-08-19T06:06:31;11.40;;;5.50;;
46411;SDS011;32113;42.012;24.870;2022-08-19T06:08:59;9.43;;;5.32;;
46411;SDS011;32113;42.012;24.870;2022-08-19T06:11:40;8.20;;;5.20;;
46411;SDS011;32113;42.012;24.870;2022-08-19T06:14:10;7.10;;;5.22;;
46411;SDS011;32113;42.012;24.870;2022-08-19T06:16:37;11.90;;;5.50;;
46411;SDS011;32113;42.012;24.870;2022-08-19T06:19:05;6.75;;;5.18;;
46411;SDS011;32113;42.012;24.870;2022-08-19T06:21:33;10.18;;;6.30;;
46411;SDS011;32113;42.012;24.870;2022-08-19T06:24:02;7.97;;;5.68;;
46411;SDS011;32113;42.012;24.870;2022-08-19T06:28:54;7.50;;;5.60;;
46411;SDS011;32113;42.012;24.870;2022-08-19T06:31:22;13.13;;;5.35;;
46411;SDS011;32113;42.012;24.870;2022-08-19T06:33:52;7.47;;;5.03;;
46411;SDS011;32113;42.012;24.870;2022-08-19T06:38:56;10.88;;;5.47;;
46411;SDS011;32113;42.012;24.870;2022-08-19T06:41:23;6.93;;;5.22;;
46411;SDS011;32113;42.012;24.870;2022-08-19T06:43:49;11.95;;;4.95;;
46411;SDS011;32113;42.012;24.870;2022-08-19T06:46:15;8.70;;;5.00;;
46411;SDS011;32113;42.012;24.870;2022-08-19T06:48:43;11.05;;;5.63;;
46411;SDS011;32113;42.012;24.870;2022-08-19T06:51:09;11.77;;;6.15;;
46411;SDS011;32113;42.012;24.870;2022-08-19T06:53:34;12.32;;;5.95;;
46411;SDS011;32113;42.012;24.870;2022-08-19T06:56:00;9.13;;;6.10;;
46411;SDS011;32113;42.012;24.870;2022-08-19T06:58:30;6.47;;;5.65;;
46411;SDS011;32113;42.012;24.870;2022-08-19T07:00:58;7.80;;;4.57;;
46411;SDS011;32113;42.012;24.870;2022-08-19T07:03:31;5.95;;;5.00;;
46411;SDS011;32113;42.012;24.870;2022-08-19T07:06:02;9.02;;;5.57;;
46411;SDS011;32113;42.012;24.870;2022-08-19T07:08:36;14.75;;;7.53;;
46411;SDS011;32113;42.012;24.870;2022-08-19T07:11:06;14.27;;;7.27;;
46411;SDS011;32113;42.012;24.870;2022-08-19T07:13:33;15.10;;;7.60;;
46411;SDS011;32113;42.012;24.870;2022-08-19T07:16:05;16.65;;;7.35;;
46411;SDS011;32113;42.012;24.870;2022-08-19T07:18:32;16.42;;;8.77;;
46411;SDS011;32113;42.012;24.870;2022-08-19T07:23:37;14.32;;;7.35;;
46411;SDS011;32113;42.012;24.870;2022-08-19T07:26:07;17.33;;;7.45;;
46411;SDS011;32113;42.012;24.870;2022-08-19T07:28:47;10.15;;;6.50;;
46411;SDS011;32113;42.012;24.870;2022-08-19T07:31:16;11.40;;;6.78;;
46411;SDS011;32113;42.012;24.870;2022-08-19T07:33:44;10.95;;;6.30;;
46411;SDS011;32113;42.012;24.870;2022-08-19T07:36:11;12.90;;;6.88;;
46411;SDS011;32113;42.012;24.870;2022-08-19T07:38:39;13.77;;;7.00;;
46411;SDS011;32113;42.012;24.870;2022-08-19T07:41:06;11.18;;;6.60;;
46411;SDS011;32113;42.012;24.870;2022-08-19T07:43:32;11.73;;;7.13;;
46411;SDS011;32113;42.012;24.870;2022-08-19T07:45:57;13.82;;;7.10;;
46411;SDS011;32113;42.012;24.870;2022-08-19T07:48:23;19.63;;;7.63;;
46411;SDS011;32113;42.012;24.870;2022-08-19T07:50:54;15.27;;;7.35;;
46411;SDS011;32113;42.012;24.870;2022-08-19T07:53:21;11.15;;;6.65;;
46411;SDS011;32113;42.012;24.870;2022-08-19T07:55:48;13.32;;;7.32;;
46411;SDS011;32113;42.012;24.870;2022-08-19T07:58:16;14.70;;;7.07;;
46411;SDS011;32113;42.012;24.870;2022-08-19T08:00:44;15.98;;;7.15;;
46411;SDS011;32113;42.012;24.870;2022-08-19T08:03:11;12.63;;;7.10;;
46411;SDS011;32113;42.012;24.870;2022-08-19T08:05:37;13.90;;;6.80;;
46411;SDS011;32113;42.012;24.870;2022-08-19T08:08:21;13.57;;;6.40;;
46411;SDS011;32113;42.012;24.870;2022-08-19T08:10:56;12.18;;;6.10;;
46411;SDS011;32113;42.012;24.870;2022-08-19T08:13:22;11.75;;;6.32;;
46411;SDS011;32113;42.012;24.870;2022-08-19T08:15:47;12.40;;;6.57;;
46411;SDS011;32113;42.012;24.870;2022-08-19T08:18:13;11.65;;;6.10;;
46411;SDS011;32113;42.012;24.870;2022-08-19T08:20:38;13.85;;;6.78;;
46411;SDS011;32113;42.012;24.870;2022-08-19T08:23:04;17.00;;;6.28;;
46411;SDS011;32113;42.012;24.870;2022-08-19T08:25:49;17.67;;;7.10;;
46411;SDS011;32113;42.012;24.870;2022-08-19T08:28:17;12.68;;;6.65;;
46411;SDS011;32113;42.012;24.870;2022-08-19T08:30:42;10.65;;;5.88;;
46411;SDS011;32113;42.012;24.870;2022-08-19T08:33:10;15.15;;;5.70;;
46411;SDS011;32113;42.012;24.870;2022-08-19T08:35:36;10.57;;;6.25;;
46411;SDS011;32113;42.012;24.870;2022-08-19T08:38:02;9.45;;;5.72;;
46411;SDS011;32113;42.012;24.870;2022-08-19T08:40:38;10.25;;;6.13;;
46411;SDS011;32113;42.012;24.870;2022-08-19T08:45:56;12.00;;;5.90;;
46411;SDS011;32113;42.012;24.870;2022-08-19T08:51:14;9.15;;;5.38;;
46411;SDS011;32113;42.012;24.870;2022-08-19T08:53:43;16.95;;;6.93;;
46411;SDS011;32113;42.012;24.870;2022-08-19T08:56:11;13.63;;;6.30;;
46411;SDS011;32113;42.012;24.870;2022-08-19T08:59:12;12.20;;;5.72;;
46411;SDS011;32113;42.012;24.870;2022-08-19T09:01:34;8.57;;;6.18;;
46411;SDS011;32113;42.012;24.870;2022-08-19T09:04:02;8.85;;;6.57;;
46411;SDS011;32113;42.012;24.870;2022-08-19T09:09:16;10.30;;;5.68;;
46411;SDS011;32113;42.012;24.870;2022-08-19T09:17:23;11.32;;;6.75;;
46411;SDS011;32113;42.012;24.870;2022-08-19T09:19:57;14.13;;;6.80;;
46411;SDS011;32113;42.012;24.870;2022-08-19T09:22:27;8.65;;;6.20;;
46411;SDS011;32113;42.012;24.870;2022-08-19T09:24:53;12.43;;;6.20;;
46411;SDS011;32113;42.012;24.870;2022-08-19T09:27:20;14.15;;;6.55;;
46411;SDS011;32113;42.012;24.870;2022-08-19T09:29:48;10.13;;;6.22;;
46411;SDS011;32113;42.012;24.870;2022-08-19T09:32:14;7.93;;;6.47;;
46411;SDS011;32113;42.012;24.870;2022-08-19T09:34:40;8.60;;;4.93;;
46411;SDS011;32113;42.012;24.870;2022-08-19T09:37:06;10.17;;;5.13;;
46411;SDS011;32113;42.012;24.870;2022-08-19T09:39:32;9.03;;;5.67;;
46411;SDS011;32113;42.012;24.870;2022-08-19T09:41:57;6.53;;;5.10;;
46411;SDS011;32113;42.012;24.870;2022-08-19T09:44:23;6.90;;;4.20;;
46411;SDS011;32113;42.012;24.870;2022-08-19T09:46:48;6.83;;;4.47;;
46411;SDS011;32113;42.012;24.870;2022-08-19T09:49:20;6.93;;;4.50;;
46411;SDS011;32113;42.012;24.870;2022-08-19T09:51:51;7.43;;;4.78;;
46411;SDS011;32113;42.012;24.870;2022-08-19T09:54:21;11.82;;;4.93;;
46411;SDS011;32113;42.012;24.870;2022-08-19T09:59:13;8.53;;;4.27;;
46411;SDS011;32113;42.012;24.870;2022-08-19T10:01:38;7.87;;;4.70;;
46411;SDS011;32113;42.012;24.870;2022-08-19T10:04:04;6.33;;;4.30;;
46411;SDS011;32113;42.012;24.870;2022-08-19T10:06:33;7.60;;;4.03;;
46411;SDS011;32113;42.012;24.870;2022-08-19T10:08:59;5.57;;;4.55;;
46411;SDS011;32113;42.012;24.870;2022-08-19T10:11:25;6.10;;;4.10;;
46411;SDS011;32113;42.012;24.870;2022-08-19T10:13:51;5.77;;;4.07;;
46411;SDS011;32113;42.012;24.870;2022-08-19T10:16:18;7.50;;;4.10;;
46411;SDS011;32113;42.012;24.870;2022-08-19T10:18:46;8.93;;;3.72;;
46411;SDS011;32113;42.012;24.870;2022-08-19T10:21:13;6.47;;;4.03;;
46411;SDS011;32113;42.012;24.870;2022-08-19T10:23:42;4.72;;;4.00;;
46411;SDS011;32113;42.012;24.870;2022-08-19T10:26:16;7.10;;;4.30;;
46411;SDS011;32113;42.012;24.870;2022-08-19T10:28:43;5.07;;;4.00;;
46411;SDS011;32113;42.012;24.870;2022-08-19T10:31:12;5.10;;;3.43;;
46411;SDS011;32113;42.012;24.870;2022-08-19T10:33:49;6.15;;;4.32;;
46411;SDS011;32113;42.012;24.870;2022-08-19T10:36:17;6.40;;;4.20;;
46411;SDS011;32113;42.012;24.870;2022-08-19T10:38:45;11.20;;;4.35;;
46411;SDS011;32113;42.012;24.870;2022-08-19T10:41:15;6.38;;;4.30;;
46411;SDS011;32113;42.012;24.870;2022-08-19T10:43:43;8.25;;;4.20;;
46411;SDS011;32113;42.012;24.870;2022-08-19T10:46:11;5.70;;;3.92;;
46411;SDS011;32113;42.012;24.870;2022-08-19T10:48:40;5.25;;;3.72;;
46411;SDS011;32113;42.012;24.870;2022-08-19T10:51:06;7.55;;;4.20;;
46411;SDS011;32113;42.012;24.870;2022-08-19T10:53:51;5.72;;;4.05;;
46411;SDS011;32113;42.012;24.870;2022-08-19T10:56:17;5.93;;;3.50;;
46411;SDS011;32113;42.012;24.870;2022-08-19T10:59:01;6.97;;;4.13;;
46411;SDS011;32113;42.012;24.870;2022-08-19T11:01:28;8.65;;;3.80;;
46411;SDS011;32113;42.012;24.870;2022-08-19T11:03:55;7.10;;;3.80;;
46411;SDS011;32113;42.012;24.870;2022-08-19T11:08:48;8.50;;;3.97;;
46411;SDS011;32113;42.012;24.870;2022-08-19T11:11:13;5.20;;;3.70;;
46411;SDS011;32113;42.012;24.870;2022-08-19T11:13:39;5.83;;;3.93;;
46411;SDS011;32113;42.012;24.870;2022-08-19T11:16:07;7.03;;;3.85;;
46411;SDS011;32113;42.012;24.870;2022-08-19T11:18:39;5.78;;;4.10;;
46411;SDS011;32113;42.012;24.870;2022-08-19T11:21:13;5.85;;;3.35;;
46411;SDS011;32113;42.012;24.870;2022-08-19T11:23:42;4.85;;;3.78;;
46411;SDS011;32113;42.012;24.870;2022-08-19T11:26:08;5.85;;;3.95;;
46411;SDS011;32113;42.012;24.870;2022-08-19T11:28:34;4.93;;;3.97;;
46411;SDS011;32113;42.012;24.870;2022-08-19T11:33:28;8.43;;;4.30;;
46411;SDS011;32113;42.012;24.870;2022-08-19T11:35:54;6.47;;;4.25;;
46411;SDS011;32113;42.012;24.870;2022-08-19T11:38:25;5.93;;;3.45;;
46411;SDS011;32113;42.012;24.870;2022-08-19T11:40:55;4.07;;;3.47;;
46411;SDS011;32113;42.012;24.870;2022-08-19T11:43:24;4.57;;;3.53;;
46411;SDS011;32113;42.012;24.870;2022-08-19T11:45:51;7.85;;;4.18;;
46411;SDS011;32113;42.012;24.870;2022-08-19T11:48:17;5.78;;;3.90;;
46411;SDS011;32113;42.012;24.870;2022-08-19T11:50:47;6.22;;;3.80;;
46411;SDS011;32113;42.012;24.870;2022-08-19T11:53:14;5.68;;;3.70;;
46411;SDS011;32113;42.012;24.870;2022-08-19T11:55:39;4.87;;;3.33;;
46411;SDS011;32113;42.012;24.870;2022-08-19T11:58:05;7.43;;;3.70;;
46411;SDS011;32113;42.012;24.870;2022-08-19T12:00:33;6.05;;;3.25;;
46411;SDS011;32113;42.012;24.870;2022-08-19T12:03:01;17.60;;;4.40;;
46411;SDS011;32113;42.012;24.870;2022-08-19T12:05:27;15.95;;;5.28;;
46411;SDS011;32113;42.012;24.870;2022-08-19T12:07:52;15.47;;;4.77;;
46411;SDS011;32113;42.012;24.870;2022-08-19T12:12:44;4.40;;;3.50;;
46411;SDS011;32113;42.012;24.870;2022-08-19T12:15:10;5.35;;;3.58;;
46411;SDS011;32113;42.012;24.870;2022-08-19T12:17:37;7.88;;;4.60;;
46411;SDS011;32113;42.012;24.870;2022-08-19T12:20:03;7.35;;;4.43;;
46411;SDS011;32113;42.012;24.870;2022-08-19T12:22:30;16.63;;;10.25;;
46411;SDS011;32113;42.012;24.870;2022-08-19T12:24:55;7.03;;;4.97;;
46411;SDS011;32113;42.012;24.870;2022-08-19T12:27:21;8.47;;;4.17;;
46411;SDS011;32113;42.012;24.870;2022-08-19T12:29:47;7.03;;;4.47;;
46411;SDS011;32113;42.012;24.870;2022-08-19T12:32:12;4.90;;;3.97;;
46411;SDS011;32113;42.012;24.870;2022-08-19T12:34:37;6.70;;;4.27;;
46411;SDS011;32113;42.012;24.870;2022-08-19T12:37:04;5.97;;;3.43;;
46411;SDS011;32113;42.012;24.870;2022-08-19T12:39:35;9.02;;;3.85;;
46411;SDS011;32113;42.012;24.870;2022-08-19T12:42:03;7.40;;;4.40;;
46411;SDS011;32113;42.012;24.870;2022-08-19T12:44:29;5.85;;;4.03;;
46411;SDS011;32113;42.012;24.870;2022-08-19T12:46:55;10.05;;;3.88;;
46411;SDS011;32113;42.012;24.870;2022-08-19T12:51:47;5.17;;;3.80;;
46411;SDS011;32113;42.012;24.870;2022-08-19T12:54:12;6.37;;;4.23;;
46411;SDS011;32113;42.012;24.870;2022-08-19T12:56:38;7.00;;;3.90;;
46411;SDS011;32113;42.012;24.870;2022-08-19T12:59:03;10.47;;;4.27;;
46411;SDS011;32113;42.012;24.870;2022-08-19T13:01:29;6.10;;;3.67;;
46411;SDS011;32113;42.012;24.870;2022-08-19T13:03:57;10.32;;;4.00;;
46411;SDS011;32113;42.012;24.870;2022-08-19T13:06:23;8.90;;;3.97;;
46411;SDS011;32113;42.012;24.870;2022-08-19T13:08:48;14.30;;;4.50;;
46411;SDS011;32113;42.012;24.870;2022-08-19T13:11:15;6.67;;;3.90;;
46411;SDS011;32113;42.012;24.870;2022-08-19T13:13:43;6.63;;;4.03;;
46411;SDS011;32113;42.012;24.870;2022-08-19T13:16:11;7.35;;;4.10;;
46411;SDS011;32113;42.012;24.870;2022-08-19T13:18:38;7.47;;;4.05;;
46411;SDS011;32113;42.012;24.870;2022-08-19T13:21:05;5.28;;;3.85;;
46411;SDS011;32113;42.012;24.870;2022-08-19T13:23:33;7.30;;;3.90;;
46411;SDS011;32113;42.012;24.870;2022-08-19T13:26:01;5.70;;;4.35;;
46411;SDS011;32113;42.012;24.870;2022-08-19T13:28:29;5.78;;;4.13;;
46411;SDS011;32113;42.012;24.870;2022-08-19T13:31:18;5.63;;;4.05;;
46411;SDS011;32113;42.012;24.870;2022-08-19T13:34:03;5.75;;;4.00;;
46411;SDS011;32113;42.012;24.870;2022-08-19T13:36:31;7.25;;;3.70;;
46411;SDS011;32113;42.012;24.870;2022-08-19T13:38:57;4.93;;;3.65;;
46411;SDS011;32113;42.012;24.870;2022-08-19T13:41:22;4.60;;;3.73;;
46411;SDS011;32113;42.012;24.870;2022-08-19T13:43:48;6.30;;;4.33;;
46411;SDS011;32113;42.012;24.870;2022-08-19T13:46:14;8.13;;;4.07;;
46411;SDS011;32113;42.012;24.870;2022-08-19T13:48:39;7.53;;;4.20;;
46411;SDS011;32113;42.012;24.870;2022-08-19T13:51:08;5.13;;;3.83;;
46411;SDS011;32113;42.012;24.870;2022-08-19T13:53:35;4.65;;;3.75;;
46411;SDS011;32113;42.012;24.870;2022-08-19T13:56:06;7.03;;;4.25;;
46411;SDS011;32113;42.012;24.870;2022-08-19T13:58:32;5.28;;;4.03;;
46411;SDS011;32113;42.012;24.870;2022-08-19T14:00:58;7.60;;;3.83;;
46411;SDS011;32113;42.012;24.870;2022-08-19T14:03:24;4.93;;;4.00;;
46411;SDS011;32113;42.012;24.870;2022-08-19T14:05:50;5.18;;;3.85;;
46411;SDS011;32113;42.012;24.870;2022-08-19T14:08:16;5.20;;;3.80;;
46411;SDS011;32113;42.012;24.870;2022-08-19T14:10:42;6.33;;;3.80;;
46411;SDS011;32113;42.012;24.870;2022-08-19T14:13:09;10.98;;;4.25;;
46411;SDS011;32113;42.012;24.870;2022-08-19T14:15:34;5.97;;;3.83;;
46411;SDS011;32113;42.012;24.870;2022-08-19T14:18:00;6.50;;;4.03;;
46411;SDS011;32113;42.012;24.870;2022-08-19T14:20:26;6.70;;;4.32;;
46411;SDS011;32113;42.012;24.870;2022-08-19T14:22:52;12.50;;;4.20;;
46411;SDS011;32113;42.012;24.870;2022-08-19T14:25:20;6.68;;;4.40;;
46411;SDS011;32113;42.012;24.870;2022-08-19T14:27:48;7.00;;;4.03;;
46411;SDS011;32113;42.012;24.870;2022-08-19T14:30:15;7.97;;;4.60;;
46411;SDS011;32113;42.012;24.870;2022-08-19T14:32:42;7.10;;;4.15;;
46411;SDS011;32113;42.012;24.870;2022-08-19T14:35:08;4.80;;;4.30;;
46411;SDS011;32113;42.012;24.870;2022-08-19T14:37:34;5.13;;;3.60;;
46411;SDS011;32113;42.012;24.870;2022-08-19T14:40:00;7.53;;;4.10;;
46411;SDS011;32113;42.012;24.870;2022-08-19T14:42:27;6.13;;;3.70;;
46411;SDS011;32113;42.012;24.870;2022-08-19T14:44:53;5.63;;;3.87;;
46411;SDS011;32113;42.012;24.870;2022-08-19T14:47:18;7.20;;;3.90;;
46411;SDS011;32113;42.012;24.870;2022-08-19T14:49:44;4.57;;;3.60;;
46411;SDS011;32113;42.012;24.870;2022-08-19T14:52:09;5.97;;;4.23;;
46411;SDS011;32113;42.012;24.870;2022-08-19T14:54:34;6.87;;;3.73;;
46411;SDS011;32113;42.012;24.870;2022-08-19T14:57:00;9.37;;;4.70;;
46411;SDS011;32113;42.012;24.870;2022-08-19T14:59:26;5.17;;;4.47;;
46411;SDS011;32113;42.012;24.870;2022-08-19T15:01:51;6.13;;;4.43;;
46411;SDS011;32113;42.012;24.870;2022-08-19T15:04:16;10.40;;;4.73;;
46411;SDS011;32113;42.012;24.870;2022-08-19T15:06:42;5.87;;;4.10;;
46411;SDS011;32113;42.012;24.870;2022-08-19T15:09:08;7.67;;;3.97;;
46411;SDS011;32113;42.012;24.870;2022-08-19T15:11:33;7.70;;;5.07;;